Portada
METAR-TAF:

METAR-TAF

Aeroports :

Aiken, Carolina del Sud, Estats Units d'Amèrica

latitud: 33-38-58N, longitud: 081-41-06W, altitud: 161 m

Observació

L'informe es va fer fa 15 minuts, a les 10:35 UTC
Vent 3 kt del Est/Sud-Est
Temperatura 21°C
Humitat 100%
Pressió 1025 hPa
Visibilitat: 11.3 km
Cel cobert a una alçada de 400 ft

METAR: KAIK 231035Z AUTO 12003KT 7SM OVC004 21/21 A3027 RMK AO2

Hora: 06:50 (10:50 UTC)


TAF: manca

Observacions i pronòstics meteorològics de més de 4000 aeroports (METAR i TAF).

Les estacions disponibles són els punts grocs i vermells al mapa.

Posi el ratolí al punt desitjat per veure el nom de l'estació.

Feu clic per veure les observacions i els pronòstics meteorològics.

Per canviar el mapa: feu clic els botons verds amb una creu de color negre per apropar; al botó verd amb un guió per allunyar la imatge; o en les fletxes verdes per a mapes adjacents.


METAR-TAF: